sensor_id;sensor_type;location;lat;lon;timestamp;temperature;humidity
5723;DHT22;2886;49.722;8.612;2024-02-23T00:01:28;9.10;99.90
5723;DHT22;2886;49.722;8.612;2024-02-23T00:03:54;9.00;99.90
5723;DHT22;2886;49.722;8.612;2024-02-23T00:06:21;9.00;99.90
5723;DHT22;2886;49.722;8.612;2024-02-23T00:08:48;8.90;99.90
5723;DHT22;2886;49.722;8.612;2024-02-23T00:11:14;8.90;99.90
5723;DHT22;2886;49.722;8.612;2024-02-23T00:13:39;8.90;99.90
5723;DHT22;2886;49.722;8.612;2024-02-23T00:16:05;8.90;99.90
5723;DHT22;2886;49.722;8.612;2024-02-23T00:18:31;8.90;99.90
5723;DHT22;2886;49.722;8.612;2024-02-23T00:20:57;8.90;99.90
5723;DHT22;2886;49.722;8.612;2024-02-23T00:23:22;8.90;99.90
5723;DHT22;2886;49.722;8.612;2024-02-23T00:25:48;8.90;99.90
5723;DHT22;2886;49.722;8.612;2024-02-23T00:28:13;8.90;99.90
5723;DHT22;2886;49.722;8.612;2024-02-23T00:30:39;8.90;99.90
5723;DHT22;2886;49.722;8.612;2024-02-23T00:33:05;8.80;99.90
5723;DHT22;2886;49.722;8.612;2024-02-23T00:35:30;8.80;99.90
5723;DHT22;2886;49.722;8.612;2024-02-23T00:37:56;8.70;99.90
5723;DHT22;2886;49.722;8.612;2024-02-23T00:40:22;8.60;99.90
5723;DHT22;2886;49.722;8.612;2024-02-23T00:42:48;8.50;99.90
5723;DHT22;2886;49.722;8.612;2024-02-23T00:45:14;8.40;99.90
5723;DHT22;2886;49.722;8.612;2024-02-23T00:47:42;8.30;99.90
5723;DHT22;2886;49.722;8.612;2024-02-23T00:50:08;8.20;99.90
5723;DHT22;2886;49.722;8.612;2024-02-23T00:52:34;8.10;99.90
5723;DHT22;2886;49.722;8.612;2024-02-23T00:55:01;8.00;99.90
5723;DHT22;2886;49.722;8.612;2024-02-23T00:57:26;7.90;99.90
5723;DHT22;2886;49.722;8.612;2024-02-23T00:59:58;7.80;99.90
5723;DHT22;2886;49.722;8.612;2024-02-23T01:02:23;7.70;99.90
5723;DHT22;2886;49.722;8.612;2024-02-23T01:04:49;7.70;99.90
5723;DHT22;2886;49.722;8.612;2024-02-23T01:07:15;7.60;99.90
5723;DHT22;2886;49.722;8.612;2024-02-23T01:09:40;7.60;99.90
5723;DHT22;2886;49.722;8.612;2024-02-23T01:12:06;7.60;99.90
5723;DHT22;2886;49.722;8.612;2024-02-23T01:14:32;7.70;99.90
5723;DHT22;2886;49.722;8.612;2024-02-23T01:16:57;7.80;99.90
5723;DHT22;2886;49.722;8.612;2024-02-23T01:19:23;7.80;99.90
5723;DHT22;2886;49.722;8.612;2024-02-23T01:21:49;7.80;99.90
5723;DHT22;2886;49.722;8.612;2024-02-23T01:24:21;7.90;99.90
5723;DHT22;2886;49.722;8.612;2024-02-23T01:26:47;8.00;99.90
5723;DHT22;2886;49.722;8.612;2024-02-23T01:29:13;8.00;99.90
5723;DHT22;2886;49.722;8.612;2024-02-23T01:31:38;8.00;99.90
5723;DHT22;2886;49.722;8.612;2024-02-23T01:34:04;8.00;99.90
5723;DHT22;2886;49.722;8.612;2024-02-23T01:36:29;7.90;99.90
5723;DHT22;2886;49.722;8.612;2024-02-23T01:38:55;8.00;99.90
5723;DHT22;2886;49.722;8.612;2024-02-23T01:41:21;8.00;99.90
5723;DHT22;2886;49.722;8.612;2024-02-23T01:43:46;8.00;99.90
5723;DHT22;2886;49.722;8.612;2024-02-23T01:46:12;8.00;99.90
5723;DHT22;2886;49.722;8.612;2024-02-23T01:48:39;7.90;99.90
5723;DHT22;2886;49.722;8.612;2024-02-23T01:51:04;7.90;99.90
5723;DHT22;2886;49.722;8.612;2024-02-23T01:53:30;7.80;99.90
5723;DHT22;2886;49.722;8.612;2024-02-23T01:55:56;7.70;99.90
5723;DHT22;2886;49.722;8.612;2024-02-23T01:58:22;7.70;99.90
5723;DHT22;2886;49.722;8.612;2024-02-23T02:00:49;7.60;99.90
5723;DHT22;2886;49.722;8.612;2024-02-23T02:03:14;7.50;99.90
5723;DHT22;2886;49.722;8.612;2024-02-23T02:05:40;7.50;99.90
5723;DHT22;2886;49.722;8.612;2024-02-23T02:08:06;7.40;99.90
5723;DHT22;2886;49.722;8.612;2024-02-23T02:10:32;7.40;99.90
5723;DHT22;2886;49.722;8.612;2024-02-23T02:13:04;7.30;99.90
5723;DHT22;2886;49.722;8.612;2024-02-23T02:15:30;7.30;99.90
5723;DHT22;2886;49.722;8.612;2024-02-23T02:17:56;7.20;99.90
5723;DHT22;2886;49.722;8.612;2024-02-23T02:20:24;7.10;99.90
5723;DHT22;2886;49.722;8.612;2024-02-23T02:22:51;7.10;99.90
5723;DHT22;2886;49.722;8.612;2024-02-23T02:25:16;7.00;99.90
5723;DHT22;2886;49.722;8.612;2024-02-23T02:27:42;7.00;99.90
5723;DHT22;2886;49.722;8.612;2024-02-23T02:30:11;6.90;99.90
5723;DHT22;2886;49.722;8.612;2024-02-23T02:32:37;6.80;99.90
5723;DHT22;2886;49.722;8.612;2024-02-23T02:35:03;6.70;99.90
5723;DHT22;2886;49.722;8.612;2024-02-23T02:37:29;6.60;99.90
5723;DHT22;2886;49.722;8.612;2024-02-23T02:39:55;6.50;99.90
5723;DHT22;2886;49.722;8.612;2024-02-23T02:42:20;6.40;99.90
5723;DHT22;2886;49.722;8.612;2024-02-23T02:44:46;6.30;99.90
5723;DHT22;2886;49.722;8.612;2024-02-23T02:47:11;6.30;99.90
5723;DHT22;2886;49.722;8.612;2024-02-23T02:49:39;6.20;99.90
5723;DHT22;2886;49.722;8.612;2024-02-23T02:52:05;6.20;99.90
5723;DHT22;2886;49.722;8.612;2024-02-23T02:54:31;6.20;99.90
5723;DHT22;2886;49.722;8.612;2024-02-23T02:56:57;6.20;99.90
5723;DHT22;2886;49.722;8.612;2024-02-23T02:59:23;6.10;99.90
5723;DHT22;2886;49.722;8.612;2024-02-23T03:01:49;6.10;99.90
5723;DHT22;2886;49.722;8.612;2024-02-23T03:04:15;6.10;99.90
5723;DHT22;2886;49.722;8.612;2024-02-23T03:06:40;6.00;99.90
5723;DHT22;2886;49.722;8.612;2024-02-23T03:09:06;6.00;99.90
5723;DHT22;2886;49.722;8.612;2024-02-23T03:11:33;6.00;99.90
5723;DHT22;2886;49.722;8.612;2024-02-23T03:13:58;6.00;99.90
5723;DHT22;2886;49.722;8.612;2024-02-23T03:16:24;6.00;99.90
5723;DHT22;2886;49.722;8.612;2024-02-23T03:18:52;6.00;99.90
5723;DHT22;2886;49.722;8.612;2024-02-23T03:21:19;6.10;99.90
5723;DHT22;2886;49.722;8.612;2024-02-23T03:23:45;6.10;99.90
5723;DHT22;2886;49.722;8.612;2024-02-23T03:26:12;6.10;99.90
5723;DHT22;2886;49.722;8.612;2024-02-23T03:28:37;6.20;99.90
5723;DHT22;2886;49.722;8.612;2024-02-23T03:31:05;6.30;99.90
5723;DHT22;2886;49.722;8.612;2024-02-23T03:33:31;6.30;99.90
5723;DHT22;2886;49.722;8.612;2024-02-23T03:35:58;6.40;99.90
5723;DHT22;2886;49.722;8.612;2024-02-23T03:38:23;6.30;99.90
5723;DHT22;2886;49.722;8.612;2024-02-23T03:40:49;6.30;99.90
5723;DHT22;2886;49.722;8.612;2024-02-23T03:43:14;6.30;99.90
5723;DHT22;2886;49.722;8.612;2024-02-23T03:45:40;6.30;99.90
5723;DHT22;2886;49.722;8.612;2024-02-23T03:48:06;6.30;99.90
5723;DHT22;2886;49.722;8.612;2024-02-23T03:50:32;6.20;99.90
5723;DHT22;2886;49.722;8.612;2024-02-23T03:52:57;6.20;99.90
5723;DHT22;2886;49.722;8.612;2024-02-23T03:55:23;6.20;99.90
5723;DHT22;2886;49.722;8.612;2024-02-23T03:57:48;6.20;99.90
5723;DHT22;2886;49.722;8.612;2024-02-23T04:00:14;6.20;99.90
5723;DHT22;2886;49.722;8.612;2024-02-23T04:02:40;6.20;99.90
5723;DHT22;2886;49.722;8.612;2024-02-23T04:05:06;6.20;99.90
5723;DHT22;2886;49.722;8.612;2024-02-23T04:07:32;6.20;99.90
5723;DHT22;2886;49.722;8.612;2024-02-23T04:09:58;6.30;99.90
5723;DHT22;2886;49.722;8.612;2024-02-23T04:12:24;6.30;99.90
5723;DHT22;2886;49.722;8.612;2024-02-23T04:14:50;6.30;99.90
5723;DHT22;2886;49.722;8.612;2024-02-23T04:17:16;6.40;99.90
5723;DHT22;2886;49.722;8.612;2024-02-23T04:19:42;6.40;99.90
5723;DHT22;2886;49.722;8.612;2024-02-23T04:22:08;6.30;99.90
5723;DHT22;2886;49.722;8.612;2024-02-23T04:24:36;6.40;99.90
5723;DHT22;2886;49.722;8.612;2024-02-23T04:27:04;6.40;99.90
5723;DHT22;2886;49.722;8.612;2024-02-23T04:29:30;6.40;99.90
5723;DHT22;2886;49.722;8.612;2024-02-23T04:32:01;6.40;99.90
5723;DHT22;2886;49.722;8.612;2024-02-23T04:34:28;6.40;99.90
5723;DHT22;2886;49.722;8.612;2024-02-23T04:36:54;6.40;99.90
5723;DHT22;2886;49.722;8.612;2024-02-23T04:39:20;6.30;99.90
5723;DHT22;2886;49.722;8.612;2024-02-23T04:41:47;6.30;99.90
5723;DHT22;2886;49.722;8.612;2024-02-23T04:44:13;6.30;99.90
5723;DHT22;2886;49.722;8.612;2024-02-23T04:46:38;6.30;99.90
5723;DHT22;2886;49.722;8.612;2024-02-23T04:49:04;6.30;99.90
5723;DHT22;2886;49.722;8.612;2024-02-23T04:51:30;6.30;99.90
5723;DHT22;2886;49.722;8.612;2024-02-23T04:53:55;6.30;99.90
5723;DHT22;2886;49.722;8.612;2024-02-23T04:56:21;6.40;99.90
5723;DHT22;2886;49.722;8.612;2024-02-23T04:58:46;6.50;99.90
5723;DHT22;2886;49.722;8.612;2024-02-23T05:01:13;6.50;99.90
5723;DHT22;2886;49.722;8.612;2024-02-23T05:03:39;6.60;99.90
5723;DHT22;2886;49.722;8.612;2024-02-23T05:06:06;6.60;99.90
5723;DHT22;2886;49.722;8.612;2024-02-23T05:08:31;6.70;99.90
5723;DHT22;2886;49.722;8.612;2024-02-23T05:10:57;6.70;99.90
5723;DHT22;2886;49.722;8.612;2024-02-23T05:13:23;6.70;99.90
5723;DHT22;2886;49.722;8.612;2024-02-23T05:15:49;6.70;99.90
5723;DHT22;2886;49.722;8.612;2024-02-23T05:18:15;6.70;99.90
5723;DHT22;2886;49.722;8.612;2024-02-23T05:20:41;6.70;99.90
5723;DHT22;2886;49.722;8.612;2024-02-23T05:23:06;6.70;99.90
5723;DHT22;2886;49.722;8.612;2024-02-23T05:25:32;6.70;99.90
5723;DHT22;2886;49.722;8.612;2024-02-23T05:27:58;6.80;99.90
5723;DHT22;2886;49.722;8.612;2024-02-23T05:30:24;6.80;99.90
5723;DHT22;2886;49.722;8.612;2024-02-23T05:32:50;6.80;99.90
5723;DHT22;2886;49.722;8.612;2024-02-23T05:35:16;6.80;99.90
5723;DHT22;2886;49.722;8.612;2024-02-23T05:37:41;6.70;99.90
5723;DHT22;2886;49.722;8.612;2024-02-23T05:40:07;6.70;99.90
5723;DHT22;2886;49.722;8.612;2024-02-23T05:42:38;6.70;99.90
5723;DHT22;2886;49.722;8.612;2024-02-23T05:45:04;6.70;99.90
5723;DHT22;2886;49.722;8.612;2024-02-23T05:47:30;6.70;99.90
5723;DHT22;2886;49.722;8.612;2024-02-23T05:49:56;6.70;99.90
5723;DHT22;2886;49.722;8.612;2024-02-23T05:52:22;6.70;99.90
5723;DHT22;2886;49.722;8.612;2024-02-23T05:54:47;6.70;99.90
5723;DHT22;2886;49.722;8.612;2024-02-23T05:57:13;6.80;99.90
5723;DHT22;2886;49.722;8.612;2024-02-23T05:59:39;6.70;99.90
5723;DHT22;2886;49.722;8.612;2024-02-23T06:02:04;6.80;99.90
5723;DHT22;2886;49.722;8.612;2024-02-23T06:04:31;6.80;99.90
5723;DHT22;2886;49.722;8.612;2024-02-23T06:06:57;6.80;99.90
5723;DHT22;2886;49.722;8.612;2024-02-23T06:09:22;6.80;99.90
5723;DHT22;2886;49.722;8.612;2024-02-23T06:11:48;6.80;99.90
5723;DHT22;2886;49.722;8.612;2024-02-23T06:14:14;6.80;99.90
5723;DHT22;2886;49.722;8.612;2024-02-23T06:16:39;6.80;99.90
5723;DHT22;2886;49.722;8.612;2024-02-23T06:19:06;6.80;99.90
5723;DHT22;2886;49.722;8.612;2024-02-23T06:21:31;6.80;99.90
5723;DHT22;2886;49.722;8.612;2024-02-23T06:23:58;6.80;99.90
5723;DHT22;2886;49.722;8.612;2024-02-23T06:26:23;6.80;99.90
5723;DHT22;2886;49.722;8.612;2024-02-23T06:28:49;6.80;99.90
5723;DHT22;2886;49.722;8.612;2024-02-23T06:31:15;6.80;99.90
5723;DHT22;2886;49.722;8.612;2024-02-23T06:33:41;6.80;99.90
5723;DHT22;2886;49.722;8.612;2024-02-23T06:36:06;6.80;99.90
5723;DHT22;2886;49.722;8.612;2024-02-23T06:38:33;6.80;99.90
5723;DHT22;2886;49.722;8.612;2024-02-23T06:40:58;6.80;99.90
5723;DHT22;2886;49.722;8.612;2024-02-23T06:43:24;6.80;99.90
5723;DHT22;2886;49.722;8.612;2024-02-23T06:45:50;6.70;99.90
5723;DHT22;2886;49.722;8.612;2024-02-23T06:48:16;6.70;99.90
5723;DHT22;2886;49.722;8.612;2024-02-23T06:50:42;6.60;99.90
5723;DHT22;2886;49.722;8.612;2024-02-23T06:53:07;6.50;99.90
5723;DHT22;2886;49.722;8.612;2024-02-23T06:55:34;6.50;99.90
5723;DHT22;2886;49.722;8.612;2024-02-23T06:58:00;6.40;99.90
5723;DHT22;2886;49.722;8.612;2024-02-23T07:00:25;6.40;99.90
5723;DHT22;2886;49.722;8.612;2024-02-23T07:02:51;6.30;99.90
5723;DHT22;2886;49.722;8.612;2024-02-23T07:05:17;6.30;99.90
5723;DHT22;2886;49.722;8.612;2024-02-23T07:07:43;6.30;99.90
5723;DHT22;2886;49.722;8.612;2024-02-23T07:10:09;6.30;99.90
5723;DHT22;2886;49.722;8.612;2024-02-23T07:12:36;6.30;99.90
5723;DHT22;2886;49.722;8.612;2024-02-23T07:15:01;6.30;99.90
5723;DHT22;2886;49.722;8.612;2024-02-23T07:17:27;6.20;99.90
5723;DHT22;2886;49.722;8.612;2024-02-23T07:19:56;6.20;99.90
5723;DHT22;2886;49.722;8.612;2024-02-23T07:22:30;6.30;99.90
5723;DHT22;2886;49.722;8.612;2024-02-23T07:24:55;6.30;99.90
5723;DHT22;2886;49.722;8.612;2024-02-23T07:27:21;6.30;99.90
5723;DHT22;2886;49.722;8.612;2024-02-23T07:29:46;6.30;99.90
5723;DHT22;2886;49.722;8.612;2024-02-23T07:32:12;6.20;99.90
5723;DHT22;2886;49.722;8.612;2024-02-23T07:34:38;6.20;99.90
5723;DHT22;2886;49.722;8.612;2024-02-23T07:37:03;6.20;99.90
5723;DHT22;2886;49.722;8.612;2024-02-23T07:39:29;6.20;99.90
5723;DHT22;2886;49.722;8.612;2024-02-23T07:41:55;6.20;99.90
5723;DHT22;2886;49.722;8.612;2024-02-23T07:44:20;6.30;99.90
5723;DHT22;2886;49.722;8.612;2024-02-23T07:46:46;6.30;99.90
5723;DHT22;2886;49.722;8.612;2024-02-23T07:49:12;6.40;99.90
5723;DHT22;2886;49.722;8.612;2024-02-23T07:51:38;6.40;99.90
5723;DHT22;2886;49.722;8.612;2024-02-23T07:54:03;6.60;99.90
5723;DHT22;2886;49.722;8.612;2024-02-23T07:56:29;6.80;99.90
5723;DHT22;2886;49.722;8.612;2024-02-23T07:58:55;7.00;99.90
5723;DHT22;2886;49.722;8.612;2024-02-23T08:01:21;7.20;99.90
5723;DHT22;2886;49.722;8.612;2024-02-23T08:03:47;7.40;99.90
5723;DHT22;2886;49.722;8.612;2024-02-23T08:06:13;7.70;99.90
5723;DHT22;2886;49.722;8.612;2024-02-23T08:08:38;8.00;99.90
5723;DHT22;2886;49.722;8.612;2024-02-23T08:11:04;8.30;99.90
5723;DHT22;2886;49.722;8.612;2024-02-23T08:13:30;8.40;98.80
5723;DHT22;2886;49.722;8.612;2024-02-23T08:15:57;8.30;99.40
5723;DHT22;2886;49.722;8.612;2024-02-23T08:18:23;8.30;99.10
5723;DHT22;2886;49.722;8.612;2024-02-23T08:20:49;8.30;99.10
5723;DHT22;2886;49.722;8.612;2024-02-23T08:23:15;8.30;98.90
5723;DHT22;2886;49.722;8.612;2024-02-23T08:25:40;8.10;99.60
5723;DHT22;2886;49.722;8.612;2024-02-23T08:28:06;8.10;98.90
5723;DHT22;2886;49.722;8.612;2024-02-23T08:30:32;8.00;99.90
5723;DHT22;2886;49.722;8.612;2024-02-23T08:32:58;8.10;99.70
5723;DHT22;2886;49.722;8.612;2024-02-23T08:35:24;8.10;99.90
5723;DHT22;2886;49.722;8.612;2024-02-23T08:37:49;8.10;99.90
5723;DHT22;2886;49.722;8.612;2024-02-23T08:40:15;8.20;99.90
5723;DHT22;2886;49.722;8.612;2024-02-23T08:42:41;8.10;99.30
5723;DHT22;2886;49.722;8.612;2024-02-23T08:45:08;8.10;99.50
5723;DHT22;2886;49.722;8.612;2024-02-23T08:47:35;8.10;99.90
5723;DHT22;2886;49.722;8.612;2024-02-23T08:50:01;8.10;99.90
5723;DHT22;2886;49.722;8.612;2024-02-23T08:52:27;8.20;99.90
5723;DHT22;2886;49.722;8.612;2024-02-23T08:54:52;8.20;99.90
5723;DHT22;2886;49.722;8.612;2024-02-23T08:57:18;8.30;99.40
5723;DHT22;2886;49.722;8.612;2024-02-23T08:59:49;8.40;97.60
5723;DHT22;2886;49.722;8.612;2024-02-23T09:02:14;8.50;97.50
5723;DHT22;2886;49.722;8.612;2024-02-23T09:04:40;8.70;96.80
5723;DHT22;2886;49.722;8.612;2024-02-23T09:07:06;8.70;94.10
5723;DHT22;2886;49.722;8.612;2024-02-23T09:09:32;8.80;92.30
5723;DHT22;2886;49.722;8.612;2024-02-23T09:11:57;8.70;93.60
5723;DHT22;2886;49.722;8.612;2024-02-23T09:14:23;8.80;90.30
5723;DHT22;2886;49.722;8.612;2024-02-23T09:16:51;8.70;91.80
5723;DHT22;2886;49.722;8.612;2024-02-23T09:19:17;8.80;87.20
5723;DHT22;2886;49.722;8.612;2024-02-23T09:21:45;8.90;90.90
5723;DHT22;2886;49.722;8.612;2024-02-23T09:24:10;9.00;87.70
5723;DHT22;2886;49.722;8.612;2024-02-23T09:26:36;9.20;88.00
5723;DHT22;2886;49.722;8.612;2024-02-23T09:29:01;9.70;82.00
5723;DHT22;2886;49.722;8.612;2024-02-23T09:31:27;10.10;69.80
5723;DHT22;2886;49.722;8.612;2024-02-23T09:33:54;10.20;65.20
5723;DHT22;2886;49.722;8.612;2024-02-23T09:36:20;10.40;65.30
5723;DHT22;2886;49.722;8.612;2024-02-23T09:38:46;10.90;61.80
5723;DHT22;2886;49.722;8.612;2024-02-23T09:41:23;11.10;59.20
5723;DHT22;2886;49.722;8.612;2024-02-23T09:43:49;11.30;60.00
5723;DHT22;2886;49.722;8.612;2024-02-23T09:46:17;11.20;57.30
5723;DHT22;2886;49.722;8.612;2024-02-23T09:48:47;11.00;58.90
5723;DHT22;2886;49.722;8.612;2024-02-23T09:51:13;11.00;59.20
5723;DHT22;2886;49.722;8.612;2024-02-23T09:53:41;10.80;57.30
5723;DHT22;2886;49.722;8.612;2024-02-23T09:56:06;10.70;59.20
5723;DHT22;2886;49.722;8.612;2024-02-23T09:58:34;10.50;59.50
5723;DHT22;2886;49.722;8.612;2024-02-23T10:01:02;10.30;61.00
5723;DHT22;2886;49.722;8.612;2024-02-23T10:03:28;10.20;61.70
5723;DHT22;2886;49.722;8.612;2024-02-23T10:05:59;10.20;62.60
5723;DHT22;2886;49.722;8.612;2024-02-23T10:08:28;10.20;61.40
5723;DHT22;2886;49.722;8.612;2024-02-23T10:10:55;10.20;61.10
5723;DHT22;2886;49.722;8.612;2024-02-23T10:13:23;10.20;62.90
5723;DHT22;2886;49.722;8.612;2024-02-23T10:15:52;10.10;63.90
5723;DHT22;2886;49.722;8.612;2024-02-23T10:18:18;10.10;64.80
5723;DHT22;2886;49.722;8.612;2024-02-23T10:20:44;10.10;64.90
5723;DHT22;2886;49.722;8.612;2024-02-23T10:23:10;10.00;63.30
5723;DHT22;2886;49.722;8.612;2024-02-23T10:25:36;9.90;63.00
5723;DHT22;2886;49.722;8.612;2024-02-23T10:28:03;10.00;63.60
5723;DHT22;2886;49.722;8.612;2024-02-23T10:30:28;10.10;64.00
5723;DHT22;2886;49.722;8.612;2024-02-23T10:32:56;10.20;64.00
5723;DHT22;2886;49.722;8.612;2024-02-23T10:35:23;10.30;63.20
5723;DHT22;2886;49.722;8.612;2024-02-23T10:37:49;10.30;63.00
5723;DHT22;2886;49.722;8.612;2024-02-23T10:40:17;10.80;60.50
5723;DHT22;2886;49.722;8.612;2024-02-23T10:42:45;11.00;58.50
5723;DHT22;2886;49.722;8.612;2024-02-23T10:45:18;11.00;58.30
5723;DHT22;2886;49.722;8.612;2024-02-23T10:47:44;11.00;58.40
5723;DHT22;2886;49.722;8.612;2024-02-23T10:50:11;10.90;57.10
5723;DHT22;2886;49.722;8.612;2024-02-23T10:52:41;10.90;57.70
5723;DHT22;2886;49.722;8.612;2024-02-23T10:55:09;10.80;58.70
5723;DHT22;2886;49.722;8.612;2024-02-23T10:57:35;10.80;58.20
5723;DHT22;2886;49.722;8.612;2024-02-23T11:00:02;10.70;59.70
5723;DHT22;2886;49.722;8.612;2024-02-23T11:02:31;10.70;58.70
5723;DHT22;2886;49.722;8.612;2024-02-23T11:04:58;10.70;58.70
5723;DHT22;2886;49.722;8.612;2024-02-23T11:07:24;10.80;59.70
5723;DHT22;2886;49.722;8.612;2024-02-23T11:09:55;10.90;58.70
5723;DHT22;2886;49.722;8.612;2024-02-23T11:12:24;10.80;59.00
5723;DHT22;2886;49.722;8.612;2024-02-23T11:14:50;10.80;59.00
5723;DHT22;2886;49.722;8.612;2024-02-23T11:17:20;11.00;57.10
5723;DHT22;2886;49.722;8.612;2024-02-23T11:19:48;10.90;57.90
5723;DHT22;2886;49.722;8.612;2024-02-23T11:22:14;11.00;58.50
5723;DHT22;2886;49.722;8.612;2024-02-23T11:24:44;10.80;58.80
5723;DHT22;2886;49.722;8.612;2024-02-23T11:27:14;10.80;60.90
5723;DHT22;2886;49.722;8.612;2024-02-23T11:29:42;10.80;59.20
5723;DHT22;2886;49.722;8.612;2024-02-23T11:32:17;10.80;59.80
5723;DHT22;2886;49.722;8.612;2024-02-23T11:34:56;10.90;61.00
5723;DHT22;2886;49.722;8.612;2024-02-23T11:37:22;11.20;59.00
5723;DHT22;2886;49.722;8.612;2024-02-23T11:39:48;11.40;58.40
5723;DHT22;2886;49.722;8.612;2024-02-23T11:42:14;11.30;57.40
5723;DHT22;2886;49.722;8.612;2024-02-23T11:44:40;11.20;55.40
5723;DHT22;2886;49.722;8.612;2024-02-23T11:47:07;11.30;55.60
5723;DHT22;2886;49.722;8.612;2024-02-23T11:49:33;11.50;55.50
5723;DHT22;2886;49.722;8.612;2024-02-23T11:51:59;11.50;54.10
5723;DHT22;2886;49.722;8.612;2024-02-23T11:54:25;11.70;55.60
5723;DHT22;2886;49.722;8.612;2024-02-23T11:56:51;11.80;53.90
5723;DHT22;2886;49.722;8.612;2024-02-23T11:59:19;11.90;55.00
5723;DHT22;2886;49.722;8.612;2024-02-23T12:01:46;11.80;54.20
5723;DHT22;2886;49.722;8.612;2024-02-23T12:04:15;11.60;53.00
5723;DHT22;2886;49.722;8.612;2024-02-23T12:06:42;11.50;54.10
5723;DHT22;2886;49.722;8.612;2024-02-23T12:09:07;11.30;54.60
5723;DHT22;2886;49.722;8.612;2024-02-23T12:11:33;11.10;56.10
5723;DHT22;2886;49.722;8.612;2024-02-23T12:14:00;11.10;57.90
5723;DHT22;2886;49.722;8.612;2024-02-23T12:16:27;11.20;58.40
5723;DHT22;2886;49.722;8.612;2024-02-23T12:18:56;11.30;57.10
5723;DHT22;2886;49.722;8.612;2024-02-23T12:21:23;11.30;55.90
5723;DHT22;2886;49.722;8.612;2024-02-23T12:23:50;11.20;56.10
5723;DHT22;2886;49.722;8.612;2024-02-23T12:26:17;11.20;55.30
5723;DHT22;2886;49.722;8.612;2024-02-23T12:28:43;11.10;57.20
5723;DHT22;2886;49.722;8.612;2024-02-23T12:31:09;11.20;60.60
5723;DHT22;2886;49.722;8.612;2024-02-23T12:33:39;11.20;59.50
5723;DHT22;2886;49.722;8.612;2024-02-23T12:36:06;11.30;60.70
5723;DHT22;2886;49.722;8.612;2024-02-23T12:38:32;11.40;59.30
5723;DHT22;2886;49.722;8.612;2024-02-23T12:40:57;11.40;61.10
5723;DHT22;2886;49.722;8.612;2024-02-23T12:43:24;11.40;61.00
5723;DHT22;2886;49.722;8.612;2024-02-23T12:45:54;11.40;62.60
5723;DHT22;2886;49.722;8.612;2024-02-23T12:48:20;11.30;61.10
5723;DHT22;2886;49.722;8.612;2024-02-23T12:50:47;11.10;64.40
5723;DHT22;2886;49.722;8.612;2024-02-23T12:53:40;10.90;79.00
5723;DHT22;2886;49.722;8.612;2024-02-23T12:56:07;10.60;91.70
5723;DHT22;2886;49.722;8.612;2024-02-23T12:58:32;10.20;98.50
5723;DHT22;2886;49.722;8.612;2024-02-23T13:00:58;9.90;99.20
5723;DHT22;2886;49.722;8.612;2024-02-23T13:03:27;9.70;99.90
5723;DHT22;2886;49.722;8.612;2024-02-23T13:05:54;9.50;99.90
5723;DHT22;2886;49.722;8.612;2024-02-23T13:08:21;9.40;99.90
5723;DHT22;2886;49.722;8.612;2024-02-23T13:10:48;9.50;99.90
5723;DHT22;2886;49.722;8.612;2024-02-23T13:13:13;9.60;99.90
5723;DHT22;2886;49.722;8.612;2024-02-23T13:15:43;9.70;99.90
5723;DHT22;2886;49.722;8.612;2024-02-23T13:18:08;9.80;99.90
5723;DHT22;2886;49.722;8.612;2024-02-23T13:20:35;9.90;99.90
5723;DHT22;2886;49.722;8.612;2024-02-23T13:23:03;10.00;99.90
5723;DHT22;2886;49.722;8.612;2024-02-23T13:25:28;10.00;99.90
5723;DHT22;2886;49.722;8.612;2024-02-23T13:27:54;10.00;99.90
5723;DHT22;2886;49.722;8.612;2024-02-23T13:30:20;10.00;99.90
5723;DHT22;2886;49.722;8.612;2024-02-23T13:32:45;10.00;99.30
5723;DHT22;2886;49.722;8.612;2024-02-23T13:35:11;10.10;99.90
5723;DHT22;2886;49.722;8.612;2024-02-23T13:37:36;10.30;99.90
5723;DHT22;2886;49.722;8.612;2024-02-23T13:40:02;10.40;97.60
5723;DHT22;2886;49.722;8.612;2024-02-23T13:42:31;10.50;95.50
5723;DHT22;2886;49.722;8.612;2024-02-23T13:44:56;10.60;95.10
5723;DHT22;2886;49.722;8.612;2024-02-23T13:47:22;10.30;84.20
5723;DHT22;2886;49.722;8.612;2024-02-23T13:49:48;10.10;92.00
5723;DHT22;2886;49.722;8.612;2024-02-23T13:52:13;10.00;93.80
5723;DHT22;2886;49.722;8.612;2024-02-23T13:54:39;10.00;95.30
5723;DHT22;2886;49.722;8.612;2024-02-23T13:57:04;10.10;95.50
5723;DHT22;2886;49.722;8.612;2024-02-23T13:59:30;10.20;95.50
5723;DHT22;2886;49.722;8.612;2024-02-23T14:01:56;10.20;94.90
5723;DHT22;2886;49.722;8.612;2024-02-23T14:04:21;10.10;96.90
5723;DHT22;2886;49.722;8.612;2024-02-23T14:06:47;10.10;99.80
5723;DHT22;2886;49.722;8.612;2024-02-23T14:09:12;10.10;98.50
5723;DHT22;2886;49.722;8.612;2024-02-23T14:11:38;10.10;99.90
5723;DHT22;2886;49.722;8.612;2024-02-23T14:14:05;10.10;99.90
5723;DHT22;2886;49.722;8.612;2024-02-23T14:16:31;10.20;99.90
5723;DHT22;2886;49.722;8.612;2024-02-23T14:18:56;10.20;99.90
5723;DHT22;2886;49.722;8.612;2024-02-23T14:21:22;10.10;99.90
5723;DHT22;2886;49.722;8.612;2024-02-23T14:23:50;10.10;99.90
5723;DHT22;2886;49.722;8.612;2024-02-23T14:26:16;10.00;99.90
5723;DHT22;2886;49.722;8.612;2024-02-23T14:28:41;9.90;99.90
5723;DHT22;2886;49.722;8.612;2024-02-23T14:31:07;9.80;99.90
5723;DHT22;2886;49.722;8.612;2024-02-23T14:33:33;9.80;99.90
5723;DHT22;2886;49.722;8.612;2024-02-23T14:35:59;9.80;99.90
5723;DHT22;2886;49.722;8.612;2024-02-23T14:38:24;9.50;99.90
5723;DHT22;2886;49.722;8.612;2024-02-23T14:40:50;9.30;99.90
5723;DHT22;2886;49.722;8.612;2024-02-23T14:43:16;9.20;99.90
5723;DHT22;2886;49.722;8.612;2024-02-23T14:45:41;9.10;99.90
5723;DHT22;2886;49.722;8.612;2024-02-23T14:48:07;9.10;99.90
5723;DHT22;2886;49.722;8.612;2024-02-23T14:50:33;8.90;99.90
5723;DHT22;2886;49.722;8.612;2024-02-23T14:52:59;8.90;99.90
5723;DHT22;2886;49.722;8.612;2024-02-23T14:55:24;8.90;99.90
5723;DHT22;2886;49.722;8.612;2024-02-23T14:57:50;8.90;99.90
5723;DHT22;2886;49.722;8.612;2024-02-23T15:00:16;8.90;99.90
5723;DHT22;2886;49.722;8.612;2024-02-23T15:02:41;8.90;99.90
5723;DHT22;2886;49.722;8.612;2024-02-23T15:05:07;8.90;99.90
5723;DHT22;2886;49.722;8.612;2024-02-23T15:07:33;8.90;99.90
5723;DHT22;2886;49.722;8.612;2024-02-23T15:10:01;8.80;99.90
5723;DHT22;2886;49.722;8.612;2024-02-23T15:12:31;8.70;99.90
5723;DHT22;2886;49.722;8.612;2024-02-23T15:14:57;8.60;99.90
5723;DHT22;2886;49.722;8.612;2024-02-23T15:17:23;8.60;99.90
5723;DHT22;2886;49.722;8.612;2024-02-23T15:19:48;8.50;99.90
5723;DHT22;2886;49.722;8.612;2024-02-23T15:22:14;8.60;99.90
5723;DHT22;2886;49.722;8.612;2024-02-23T15:24:41;8.70;99.90
5723;DHT22;2886;49.722;8.612;2024-02-23T15:27:08;8.80;99.90
5723;DHT22;2886;49.722;8.612;2024-02-23T15:29:34;8.80;99.90
5723;DHT22;2886;49.722;8.612;2024-02-23T15:32:00;8.80;99.90
5723;DHT22;2886;49.722;8.612;2024-02-23T15:34:26;8.90;99.90
5723;DHT22;2886;49.722;8.612;2024-02-23T15:36:52;9.00;99.90
5723;DHT22;2886;49.722;8.612;2024-02-23T15:39:18;9.00;99.90
5723;DHT22;2886;49.722;8.612;2024-02-23T15:41:43;9.00;99.90
5723;DHT22;2886;49.722;8.612;2024-02-23T15:44:10;8.90;99.40
5723;DHT22;2886;49.722;8.612;2024-02-23T15:46:36;9.00;99.90
5723;DHT22;2886;49.722;8.612;2024-02-23T15:49:02;9.10;99.90
5723;DHT22;2886;49.722;8.612;2024-02-23T15:51:27;9.20;99.90
5723;DHT22;2886;49.722;8.612;2024-02-23T15:53:59;9.10;99.90
5723;DHT22;2886;49.722;8.612;2024-02-23T15:56:24;8.90;99.90
5723;DHT22;2886;49.722;8.612;2024-02-23T15:58:50;8.80;99.90
5723;DHT22;2886;49.722;8.612;2024-02-23T16:01:16;8.70;99.90
5723;DHT22;2886;49.722;8.612;2024-02-23T16:03:41;8.70;99.90
5723;DHT22;2886;49.722;8.612;2024-02-23T16:06:07;8.60;99.90